Portada
METAR-TAF:

METAR-TAF

Aeroports :

Mysore, Índia

latitud: 12-13-48N, longitud: 76-39-21E, altitud: 715 m

Observació

L'informe es va fer fa 35 minuts, a les 05:30 UTC
Vent 8 kt del Oest/Sud-Oest
Temperatura 24°C
Humitat 83%
Pressió 1014 hPa
Visibilitat: 8000 m
Cel ennuvolat a una alçada de 1200 ft
Cel ennuvolat a una alçada de 8000 ft

METAR: VOMY 010530Z 25008KT 8000 BKN012 BKN080 24/21 Q1014

Hora: 11:35 (06:05 UTC)

Pronòstic

L'informe es va fer fa 4 hores i 5 minuts, a les 02:00 UTC
Pronòstic vàlid del 01 a les 03 UTC al 01 a les 12 UTC
Vent 10 kt del Oest/Sud-Oest
Visibilitat: 6000 m
Núvols disperses a una alçada de 1200 ft
Cel ennuvolat a una alçada de 8000 ft
Temporalment
l' 01 a les 06 UTC al 01 a les 12 UTC
Visibilitat: 3000 m
Núvols disperses a una alçada de 800 ft
Núvols disperses a una alçada de 1200 ft
Cel ennuvolat a una alçada de 8000 ft
pluja, plugim

TAF: VOMY 010200Z 0103/0112 25010KT 6000 SCT012 BKN080 TEMPO 0106/0112 3000 RA DZ SCT008 SCT012 BKN080

Observacions i pronòstics meteorològics de més de 4000 aeroports (METAR i TAF).

Les estacions disponibles són els punts grocs i vermells al mapa.

Posi el ratolí al punt desitjat per veure el nom de l'estació.

Feu clic per veure les observacions i els pronòstics meteorològics.

Per canviar el mapa: feu clic els botons verds amb una creu de color negre per apropar; al botó verd amb un guió per allunyar la imatge; o en les fletxes verdes per a mapes adjacents.


METAR-TAF: